Time;durP1;ratioP1;P1;durP2;ratioP2;P2;SDS_P1;SDS_P2;PMS_P1;PMS_P2;Temp;Humidity;BMP_temperature;BMP_pressure;BME280_temperature;BME280_humidity;BME280_pressure;Samples;Min_cycle;Max_cycle;Signal;HPM_P1;HPM_P2
2023/06/07 00:01:54;;;;;;;13.90;5.97;;;13.20;99.90;;;;;;5070459;28;20450;-86
2023/06/07 00:04:19;;;;;;;12.02;4.35;;;13.20;99.90;;;;;;5070161;28;20048;-86
2023/06/07 00:06:47;;;;;;;11.07;3.80;;;13.10;99.90;;;;;;5070511;28;20041;-86
2023/06/07 00:09:12;;;;;;;9.18;3.58;;;13.00;99.90;;;;;;5070379;28;20048;-86
2023/06/07 00:11:38;;;;;;;13.75;6.82;;;12.90;99.90;;;;;;5070001;28;20040;-86
2023/06/07 00:14:05;;;;;;;14.05;3.83;;;13.00;99.90;;;;;;5071573;28;20076;-86
2023/06/07 00:16:32;;;;;;;10.80;4.45;;;12.90;99.90;;;;;;5053627;28;20128;-86
2023/06/07 00:19:01;;;;;;;14.77;6.25;;;12.90;99.90;;;;;;5071639;28;20635;-86
2023/06/07 00:21:27;;;;;;;10.20;4.13;;;12.90;99.90;;;;;;5069946;28;20036;-86
2023/06/07 00:23:53;;;;;;;8.80;3.75;;;12.90;99.90;;;;;;5053593;28;20487;-86
2023/06/07 00:26:18;;;;;;;10.38;4.03;;;12.80;99.90;;;;;;5070518;28;20129;-86
2023/06/07 00:28:44;;;;;;;10.18;3.67;;;12.80;99.90;;;;;;5070210;28;20129;-86
2023/06/07 00:31:10;;;;;;;16.65;7.15;;;12.80;99.90;;;;;;5069898;28;20037;-86
2023/06/07 00:33:35;;;;;;;10.45;3.85;;;12.80;99.90;;;;;;5070053;28;20036;-86
2023/06/07 00:36:01;;;;;;;10.00;4.13;;;12.80;99.90;;;;;;5053762;28;20032;-86
2023/06/07 00:38:26;;;;;;;13.82;6.07;;;12.80;99.90;;;;;;5053656;28;20463;-86
2023/06/07 00:40:52;;;;;;;14.00;4.10;;;12.80;99.90;;;;;;5069750;28;20632;-86
2023/06/07 00:43:18;;;;;;;16.27;6.68;;;12.80;99.90;;;;;;5070281;28;20048;-86
2023/06/07 00:45:43;;;;;;;13.52;3.92;;;12.80;99.90;;;;;;5071565;28;20456;-86
2023/06/07 00:48:10;;;;;;;11.88;5.82;;;12.70;99.90;;;;;;5070271;28;20036;-86
2023/06/07 00:50:35;;;;;;;12.50;3.88;;;12.70;99.90;;;;;;5069820;28;20037;-86
2023/06/07 00:53:03;;;;;;;11.70;6.35;;;12.60;99.90;;;;;;5070111;28;20045;-86
2023/06/07 00:55:29;;;;;;;12.07;6.00;;;12.60;99.90;;;;;;5053605;28;20434;-86
2023/06/07 00:57:55;;;;;;;14.90;6.32;;;12.60;99.90;;;;;;5053228;28;20043;-85
2023/06/07 01:00:21;;;;;;;8.27;3.72;;;12.60;99.90;;;;;;5069564;28;20033;-85
2023/06/07 01:02:49;;;;;;;11.98;4.05;;;12.50;99.90;;;;;;5069974;28;20047;-85
2023/06/07 01:05:16;;;;;;;10.30;3.05;;;12.30;99.90;;;;;;5068112;28;20115;-85
2023/06/07 01:07:47;;;;;;;9.45;2.83;;;12.10;99.90;;;;;;5053205;28;20644;-85
2023/06/07 01:10:14;;;;;;;7.25;1.95;;;12.00;99.90;;;;;;5051528;28;20033;-85
2023/06/07 01:12:43;;;;;;;6.68;2.42;;;11.80;99.90;;;;;;5052772;28;20106;-85
2023/06/07 01:15:11;;;;;;;9.38;3.65;;;11.70;99.90;;;;;;5053306;28;20037;-85
2023/06/07 01:17:40;;;;;;;5.72;2.50;;;11.70;99.90;;;;;;5056802;28;20051;-85
2023/06/07 01:20:11;;;;;;;6.38;1.80;;;11.60;99.90;;;;;;5056675;28;20032;-85
2023/06/07 01:22:42;;;;;;;9.23;2.85;;;11.50;99.90;;;;;;5073380;28;20045;-85
2023/06/07 01:25:08;;;;;;;7.30;2.53;;;11.50;99.90;;;;;;5073682;28;20449;-85
2023/06/07 01:27:37;;;;;;;6.85;2.55;;;11.40;99.90;;;;;;5073498;28;20087;-85
2023/06/07 01:30:03;;;;;;;9.27;2.85;;;11.40;99.90;;;;;;5072889;28;20470;-85
2023/06/07 01:32:30;;;;;;;9.27;3.20;;;11.30;99.90;;;;;;5073179;28;20551;-85
2023/06/07 01:34:57;;;;;;;9.10;3.40;;;11.20;99.90;;;;;;5073151;28;20094;-85
2023/06/07 01:37:23;;;;;;;8.23;3.20;;;11.10;99.90;;;;;;5056517;28;20079;-85
2023/06/07 01:39:51;;;;;;;10.10;3.30;;;11.10;99.90;;;;;;5073039;28;20041;-85
2023/06/07 01:42:17;;;;;;;8.35;3.25;;;11.10;99.90;;;;;;5056736;28;20398;-85
2023/06/07 01:44:45;;;;;;;8.45;3.30;;;11.00;99.90;;;;;;5073186;28;20047;-85
2023/06/07 01:47:12;;;;;;;10.07;3.40;;;10.90;99.90;;;;;;5073285;28;20089;-85
2023/06/07 01:49:38;;;;;;;9.75;3.63;;;10.90;99.90;;;;;;5072379;28;20498;-85
2023/06/07 01:52:05;;;;;;;9.90;3.90;;;10.80;99.90;;;;;;5072893;28;20052;-85
2023/06/07 01:54:30;;;;;;;13.68;4.25;;;10.80;99.90;;;;;;5072624;28;20414;-85
2023/06/07 01:57:07;;;;;;;11.30;3.90;;;10.80;99.90;;;;;;5072802;28;20036;-86
2023/06/07 02:00:10;;;;;;;10.82;3.63;;;10.80;99.90;;;;;;5072223;28;20047;-85
2023/06/07 02:02:56;;;;;;;11.63;4.20;;;10.70;99.90;;;;;;5056366;28;20114;-85
2023/06/07 02:05:31;;;;;;;10.15;4.38;;;10.70;99.90;;;;;;5072617;28;20041;-85
2023/06/07 02:08:00;;;;;;;13.15;3.97;;;10.70;99.90;;;;;;5055952;28;20040;-85
2023/06/07 02:10:28;;;;;;;14.40;4.22;;;10.60;99.90;;;;;;5072194;28;20039;-85
2023/06/07 02:12:54;;;;;;;13.35;7.40;;;10.60;99.90;;;;;;5055594;28;20048;-85
2023/06/07 02:15:23;;;;;;;10.98;4.10;;;10.70;99.90;;;;;;5056031;28;20051;-85
2023/06/07 02:17:57;;;;;;;7.93;3.45;;;10.70;99.90;;;;;;5072591;28;20432;-85
2023/06/07 02:20:24;;;;;;;10.90;4.05;;;10.60;99.90;;;;;;5055474;28;20164;-85
2023/06/07 02:22:50;;;;;;;12.98;5.35;;;10.50;99.90;;;;;;5055697;28;20040;-85
2023/06/07 02:25:15;;;;;;;11.82;4.50;;;10.50;99.90;;;;;;5072275;28;20032;-85
2023/06/07 02:27:41;;;;;;;12.13;4.60;;;10.40;99.90;;;;;;5072071;28;20185;-84
2023/06/07 02:30:07;;;;;;;11.18;4.13;;;10.40;99.90;;;;;;5055139;28;20494;-85
2023/06/07 02:32:33;;;;;;;10.38;4.05;;;10.40;99.90;;;;;;5072412;28;20044;-84
2023/06/07 02:34:59;;;;;;;8.80;3.70;;;10.40;99.90;;;;;;5071867;28;20413;-85
2023/06/07 02:37:24;;;;;;;8.68;2.85;;;10.30;99.90;;;;;;5072104;28;20409;-85
2023/06/07 02:39:50;;;;;;;6.97;2.85;;;10.20;99.90;;;;;;5071632;28;20036;-85
2023/06/07 02:42:16;;;;;;;7.88;2.90;;;10.10;99.90;;;;;;5055603;28;20044;-85
2023/06/07 02:44:41;;;;;;;10.27;3.90;;;10.10;99.90;;;;;;5055163;28;20037;-85
2023/06/07 02:47:07;;;;;;;9.55;3.85;;;10.00;99.90;;;;;;5071856;28;20044;-85
2023/06/07 02:49:32;;;;;;;8.55;3.03;;;10.00;99.90;;;;;;5071203;28;20047;-85
2023/06/07 02:51:58;;;;;;;6.80;2.85;;;9.90;99.90;;;;;;5071722;28;20047;-85
2023/06/07 02:54:23;;;;;;;9.27;3.33;;;9.90;99.90;;;;;;5055003;28;20036;-85
2023/06/07 02:56:49;;;;;;;12.98;4.63;;;9.80;99.90;;;;;;5071434;28;20405;-85
2023/06/07 02:59:15;;;;;;;10.80;4.50;;;9.80;99.90;;;;;;5055099;28;20066;-85
2023/06/07 03:01:40;;;;;;;9.32;4.22;;;9.80;99.90;;;;;;5054615;28;20651;-85
2023/06/07 03:04:06;;;;;;;15.20;4.90;;;9.90;99.90;;;;;;5071309;28;20177;-85
2023/06/07 03:06:33;;;;;;;12.60;4.05;;;9.90;99.90;;;;;;5071707;28;20048;-85
2023/06/07 03:08:58;;;;;;;12.65;4.22;;;9.90;99.90;;;;;;5071433;28;20059;-85
2023/06/07 03:11:25;;;;;;;9.75;4.53;;;9.80;99.90;;;;;;5054168;28;20048;-85
2023/06/07 03:13:50;;;;;;;9.65;4.07;;;9.80;99.90;;;;;;5071208;28;20048;-85
2023/06/07 03:16:16;;;;;;;7.35;2.85;;;9.80;99.90;;;;;;5054679;28;20059;-85
2023/06/07 03:18:42;;;;;;;9.10;3.25;;;9.80;99.90;;;;;;5070976;28;20032;-85
2023/06/07 03:21:08;;;;;;;7.20;2.67;;;9.80;99.90;;;;;;5071136;28;20036;-85
2023/06/07 03:23:33;;;;;;;5.63;2.03;;;9.70;99.90;;;;;;5070973;28;20467;-85
2023/06/07 03:25:59;;;;;;;7.70;2.85;;;9.70;99.90;;;;;;5070971;28;20068;-85
2023/06/07 03:28:25;;;;;;;6.60;2.40;;;9.60;99.90;;;;;;5054619;28;20048;-85
2023/06/07 03:30:51;;;;;;;8.18;3.13;;;9.60;99.90;;;;;;5070699;28;20067;-85
2023/06/07 03:33:16;;;;;;;7.20;2.90;;;9.60;99.90;;;;;;5054262;28;20062;-85
2023/06/07 03:35:44;;;;;;;7.97;2.75;;;9.50;99.90;;;;;;5070963;28;20033;-85
2023/06/07 03:38:10;;;;;;;8.75;2.80;;;9.50;99.90;;;;;;5053791;28;20448;-85
2023/06/07 03:40:35;;;;;;;7.05;2.35;;;9.40;99.90;;;;;;5070481;28;20123;-85
2023/06/07 03:43:01;;;;;;;6.05;2.10;;;9.40;99.90;;;;;;5054428;28;20131;-85
2023/06/07 03:45:27;;;;;;;8.60;3.53;;;9.40;99.90;;;;;;5054131;28;20032;-85
2023/06/07 03:47:53;;;;;;;10.40;3.80;;;9.40;99.90;;;;;;5070565;28;20036;-85
2023/06/07 03:50:20;;;;;;;9.90;4.15;;;9.40;99.90;;;;;;5070493;28;20559;-85
2023/06/07 03:52:46;;;;;;;8.70;3.65;;;9.50;99.90;;;;;;5070568;28;20048;-85
2023/06/07 03:55:11;;;;;;;8.50;3.65;;;9.50;99.90;;;;;;5070552;28;20028;-85
2023/06/07 03:57:37;;;;;;;9.65;3.38;;;9.50;99.90;;;;;;5054198;28;20048;-85
2023/06/07 04:00:11;;;;;;;9.88;3.88;;;9.60;99.90;;;;;;5053447;28;20410;-85
2023/06/07 04:02:37;;;;;;;9.18;3.67;;;9.60;99.90;;;;;;5070832;28;20524;-86
2023/06/07 04:05:03;;;;;;;11.00;3.83;;;9.60;99.90;;;;;;5054136;28;20033;-86
2023/06/07 04:07:30;;;;;;;10.38;4.57;;;9.70;99.90;;;;;;5070425;28;20043;-87
2023/06/07 04:09:55;;;;;;;13.00;4.60;;;9.80;99.90;;;;;;5070161;28;20037;-86
2023/06/07 04:12:21;;;;;;;11.90;4.93;;;9.80;99.90;;;;;;5070207;28;20063;-86
2023/06/07 04:14:47;;;;;;;12.07;5.55;;;9.90;99.90;;;;;;5070549;28;20068;-86
2023/06/07 04:17:12;;;;;;;10.70;4.18;;;10.00;99.90;;;;;;5053565;28;20040;-87
2023/06/07 04:19:38;;;;;;;15.43;5.10;;;10.00;99.90;;;;;;5070197;28;20044;-86
2023/06/07 04:22:04;;;;;;;15.00;4.93;;;10.20;99.90;;;;;;5053552;28;20456;-86
2023/06/07 04:24:31;;;;;;;14.13;5.00;;;10.20;99.90;;;;;;5070274;28;20094;-86
2023/06/07 04:26:58;;;;;;;16.05;5.30;;;10.30;99.90;;;;;;5053476;28;20074;-86
2023/06/07 04:29:25;;;;;;;13.40;4.22;;;10.40;99.90;;;;;;5070102;28;20044;-86
2023/06/07 04:31:56;;;;;;;13.02;5.28;;;10.50;99.90;;;;;;5053442;28;20565;-86
2023/06/07 04:34:23;;;;;;;21.38;5.55;;;10.60;99.90;;;;;;5070071;28;20045;-86
2023/06/07 04:36:49;;;;;;;13.98;4.85;;;10.80;99.90;;;;;;5070503;28;20510;-86
2023/06/07 04:39:16;;;;;;;17.88;4.90;;;10.80;99.90;;;;;;5053486;28;20060;-86
2023/06/07 04:41:42;;;;;;;15.80;5.00;;;10.90;99.90;;;;;;5069953;28;20127;-86
2023/06/07 04:44:08;;;;;;;10.52;4.60;;;11.00;99.90;;;;;;5053288;28;20056;-86
2023/06/07 04:46:34;;;;;;;15.88;4.35;;;11.10;99.90;;;;;;5070175;28;20457;-86
2023/06/07 04:49:00;;;;;;;12.80;4.03;;;11.10;99.90;;;;;;5070123;28;20037;-86
2023/06/07 04:51:29;;;;;;;20.08;8.48;;;11.20;99.90;;;;;;5056491;28;20401;-87
2023/06/07 04:54:04;;;;;;;17.30;4.80;;;11.40;99.90;;;;;;5074008;28;20490;-86
2023/06/07 04:56:30;;;;;;;12.98;4.10;;;11.40;99.90;;;;;;5073577;28;20036;-86
2023/06/07 04:58:56;;;;;;;14.50;4.13;;;11.50;99.90;;;;;;5074021;28;20047;-86
2023/06/07 05:01:22;;;;;;;18.13;4.45;;;11.50;99.90;;;;;;5056654;28;20086;-86
2023/06/07 05:03:50;;;;;;;10.52;3.60;;;11.60;99.90;;;;;;5073821;28;20036;-86
2023/06/07 05:06:19;;;;;;;12.88;4.32;;;11.70;99.90;;;;;;5057316;28;20040;-87
2023/06/07 05:08:45;;;;;;;15.00;4.03;;;11.70;99.90;;;;;;5073838;28;20044;-87
2023/06/07 05:11:10;;;;;;;14.00;4.65;;;11.80;99.90;;;;;;5056749;28;20036;-86
2023/06/07 05:13:36;;;;;;;12.73;3.92;;;11.80;99.90;;;;;;5073419;28;20454;-86
2023/06/07 05:16:02;;;;;;;13.23;3.63;;;11.90;99.90;;;;;;5073893;28;20044;-86
2023/06/07 05:18:28;;;;;;;12.23;4.43;;;12.00;99.90;;;;;;5056782;28;20542;-85
2023/06/07 05:20:53;;;;;;;12.77;4.00;;;12.00;99.90;;;;;;5072957;28;20047;-84
2023/06/07 05:23:19;;;;;;;13.07;3.92;;;12.10;99.90;;;;;;5056635;28;20044;-84
2023/06/07 05:25:46;;;;;;;13.27;3.28;;;12.10;99.90;;;;;;5073256;28;20044;-84
2023/06/07 05:28:12;;;;;;;16.55;5.20;;;12.20;99.90;;;;;;5073375;28;20048;-84
2023/06/07 05:30:38;;;;;;;20.15;6.45;;;12.20;99.90;;;;;;5056367;28;20085;-84
2023/06/07 05:33:05;;;;;;;14.98;3.53;;;12.30;99.90;;;;;;5073245;28;20502;-84
2023/06/07 05:35:31;;;;;;;17.38;4.00;;;12.40;99.90;;;;;;5073433;28;20033;-84
2023/06/07 05:37:57;;;;;;;11.35;4.25;;;12.40;99.90;;;;;;5073593;28;20418;-84
2023/06/07 05:40:23;;;;;;;14.88;4.57;;;12.40;99.90;;;;;;5072604;28;20668;-84
2023/06/07 05:42:50;;;;;;;10.90;3.35;;;12.50;99.90;;;;;;5073085;28;20036;-84
2023/06/07 05:45:16;;;;;;;10.32;3.88;;;12.50;99.90;;;;;;5072986;28;20052;-84
2023/06/07 05:47:43;;;;;;;19.25;6.75;;;12.60;99.90;;;;;;5073238;28;20410;-84
2023/06/07 05:50:10;;;;;;;16.00;6.30;;;12.70;99.90;;;;;;5072818;28;20056;-84
2023/06/07 05:52:40;;;;;;;14.35;4.15;;;12.80;99.90;;;;;;5056112;28;20036;-87
2023/06/07 05:55:07;;;;;;;14.20;3.95;;;12.80;99.90;;;;;;5056122;28;20033;-87
2023/06/07 05:57:32;;;;;;;18.20;7.10;;;12.80;99.90;;;;;;5072961;28;20032;-86
2023/06/07 05:59:58;;;;;;;14.85;3.85;;;12.90;99.90;;;;;;5072125;28;20421;-86
2023/06/07 06:02:24;;;;;;;19.73;7.15;;;12.90;99.90;;;;;;5055308;28;20041;-87
2023/06/07 06:04:52;;;;;;;19.08;5.63;;;13.10;99.90;;;;;;5072751;28;20076;-86
2023/06/07 06:07:19;;;;;;;11.82;4.63;;;13.10;99.90;;;;;;5055783;28;20048;-86
2023/06/07 06:09:45;;;;;;;18.25;3.58;;;13.10;99.90;;;;;;5072273;28;20094;-86
2023/06/07 06:12:11;;;;;;;16.10;6.05;;;13.10;99.90;;;;;;5072386;28;20040;-86
2023/06/07 06:14:37;;;;;;;14.15;3.90;;;13.30;99.90;;;;;;5072384;28;20041;-86
2023/06/07 06:17:04;;;;;;;12.60;3.75;;;13.30;99.90;;;;;;5072541;28;20490;-86
2023/06/07 06:19:30;;;;;;;14.18;3.67;;;13.30;99.90;;;;;;5072031;28;20498;-86
2023/06/07 06:21:55;;;;;;;14.85;6.30;;;13.40;99.90;;;;;;5072257;28;20044;-86
2023/06/07 06:24:21;;;;;;;17.70;6.75;;;13.40;99.90;;;;;;5072501;28;20067;-86
2023/06/07 06:26:46;;;;;;;11.40;3.85;;;13.50;99.90;;;;;;5071393;28;20033;-86
2023/06/07 06:29:12;;;;;;;12.20;3.67;;;13.50;99.90;;;;;;5071276;28;20036;-86
2023/06/07 06:31:39;;;;;;;12.18;3.95;;;13.50;99.90;;;;;;5071305;28;20044;-86
2023/06/07 06:34:05;;;;;;;15.15;5.47;;;13.50;99.90;;;;;;5071301;28;20094;-86
2023/06/07 06:36:30;;;;;;;14.65;3.90;;;13.60;99.90;;;;;;5071713;28;20037;-86
2023/06/07 06:38:56;;;;;;;19.60;5.10;;;13.60;99.90;;;;;;5073390;28;20048;-87
2023/06/07 06:41:22;;;;;;;16.60;4.32;;;13.70;99.90;;;;;;5071674;28;20093;-86
2023/06/07 06:43:47;;;;;;;15.43;4.00;;;13.70;99.90;;;;;;5055257;28;20452;-86
2023/06/07 06:46:13;;;;;;;18.30;6.18;;;13.80;99.90;;;;;;5071808;28;20391;-87
2023/06/07 06:48:40;;;;;;;17.85;6.10;;;13.90;99.90;;;;;;5071858;28;20084;-87
2023/06/07 06:51:05;;;;;;;13.07;3.95;;;14.00;99.90;;;;;;5055067;28;20123;-86
2023/06/07 06:53:31;;;;;;;18.08;4.63;;;14.10;99.90;;;;;;5071734;28;20455;-86
2023/06/07 06:55:57;;;;;;;16.90;6.50;;;14.10;99.90;;;;;;5072069;28;20036;-87
2023/06/07 06:58:23;;;;;;;17.40;6.07;;;14.20;99.90;;;;;;5071978;28;20426;-86
2023/06/07 07:00:48;;;;;;;14.43;3.72;;;14.30;99.90;;;;;;5071670;28;20094;-87
2023/06/07 07:03:14;;;;;;;16.00;3.38;;;14.30;99.90;;;;;;5070875;28;20441;-87
2023/06/07 07:05:39;;;;;;;11.55;3.67;;;14.40;99.90;;;;;;5054363;28;20098;-87
2023/06/07 07:08:06;;;;;;;14.85;4.60;;;14.50;99.90;;;;;;5054900;28;20414;-87
2023/06/07 07:10:32;;;;;;;19.50;5.93;;;14.60;99.90;;;;;;5054516;28;20044;-86
2023/06/07 07:12:58;;;;;;;15.02;5.45;;;14.70;99.90;;;;;;5071992;28;20043;-86
2023/06/07 07:15:23;;;;;;;14.15;4.18;;;14.90;99.90;;;;;;5070978;28;20052;-87
2023/06/07 07:17:50;;;;;;;12.20;3.58;;;14.90;99.90;;;;;;5072673;28;20108;-86
2023/06/07 07:20:16;;;;;;;20.55;6.20;;;15.00;99.90;;;;;;5071071;28;20408;-87
2023/06/07 07:22:44;;;;;;;15.40;3.72;;;15.00;99.90;;;;;;5071538;28;20037;-87
2023/06/07 07:25:10;;;;;;;18.73;6.32;;;15.00;99.90;;;;;;5071163;28;20041;-87
2023/06/07 07:27:36;;;;;;;14.68;4.78;;;15.10;99.90;;;;;;5071279;28;20044;-87
2023/06/07 07:30:04;;;;;;;14.60;5.07;;;15.20;99.90;;;;;;5070742;28;20044;-87
2023/06/07 07:32:30;;;;;;;13.35;5.20;;;15.30;99.90;;;;;;5070949;28;20052;-87
2023/06/07 07:34:55;;;;;;;12.80;3.72;;;15.40;99.90;;;;;;5070878;28;20032;-87
2023/06/07 07:37:21;;;;;;;15.32;5.93;;;15.40;99.90;;;;;;5071156;28;20067;-87
2023/06/07 07:39:46;;;;;;;14.98;5.55;;;15.50;99.90;;;;;;5070612;28;20040;-87
2023/06/07 07:42:12;;;;;;;15.85;5.20;;;15.60;99.90;;;;;;5071198;28;20206;-87
2023/06/07 07:44:38;;;;;;;15.20;4.40;;;15.60;99.90;;;;;;5054184;28;20190;-87
2023/06/07 07:47:07;;;;;;;15.75;4.70;;;15.70;99.90;;;;;;5087792;28;20047;-87
2023/06/07 07:49:33;;;;;;;16.10;5.50;;;15.70;99.90;;;;;;5070441;28;20036;-87
2023/06/07 07:51:58;;;;;;;14.63;5.57;;;15.90;99.90;;;;;;5070769;28;20047;-87
2023/06/07 07:54:25;;;;;;;12.90;4.30;;;16.00;99.90;;;;;;5053886;28;20040;-87
2023/06/07 07:56:51;;;;;;;14.77;4.43;;;16.10;99.90;;;;;;5070693;28;20097;-87
2023/06/07 07:59:16;;;;;;;15.73;5.75;;;16.10;99.90;;;;;;5070856;28;20044;-87
2023/06/07 08:01:42;;;;;;;12.93;4.85;;;16.30;99.90;;;;;;5070292;28;20405;-87
2023/06/07 08:04:08;;;;;;;13.77;4.38;;;16.40;99.90;;;;;;5070537;28;20523;-87
2023/06/07 08:06:33;;;;;;;19.95;5.70;;;16.40;99.90;;;;;;5053856;28;20468;-87
2023/06/07 08:08:59;;;;;;;21.00;6.03;;;16.50;99.90;;;;;;5053952;28;20036;-87
2023/06/07 08:11:25;;;;;;;19.85;5.00;;;16.50;99.90;;;;;;5070276;28;20051;-87
2023/06/07 08:13:51;;;;;;;17.35;5.47;;;16.60;99.90;;;;;;5053796;28;20512;-87
2023/06/07 08:16:17;;;;;;;15.30;4.78;;;16.60;99.90;;;;;;5070531;28;20037;-87
2023/06/07 08:18:44;;;;;;;15.80;5.75;;;16.60;99.90;;;;;;5053535;28;20378;-87
2023/06/07 08:21:11;;;;;;;12.30;5.63;;;16.70;99.90;;;;;;5070090;28;20045;-87
2023/06/07 08:23:37;;;;;;;15.43;6.03;;;16.80;99.90;;;;;;5053749;28;20085;-87
2023/06/07 08:26:03;;;;;;;18.73;5.53;;;16.90;99.90;;;;;;5070428;28;20044;-87
2023/06/07 08:28:28;;;;;;;16.55;5.93;;;17.00;99.90;;;;;;5053602;28;20063;-87
2023/06/07 08:30:54;;;;;;;18.17;8.27;;;17.10;99.90;;;;;;5070046;28;20044;-87
2023/06/07 08:33:19;;;;;;;19.58;7.80;;;17.20;99.90;;;;;;5070424;28;20043;-87
2023/06/07 08:35:45;;;;;;;16.55;6.82;;;17.30;99.90;;;;;;5053409;28;20506;-86
2023/06/07 08:38:11;;;;;;;15.95;6.10;;;17.40;99.90;;;;;;5070329;28;20033;-87
2023/06/07 08:40:37;;;;;;;16.23;5.35;;;17.60;99.90;;;;;;5071203;28;20048;-86
2023/06/07 08:43:02;;;;;;;14.23;5.70;;;17.60;99.90;;;;;;5053565;28;20559;-88
2023/06/07 08:45:28;;;;;;;17.58;5.90;;;17.80;99.90;;;;;;5070322;28;20103;-88
2023/06/07 08:47:58;;;;;;;12.88;5.53;;;17.80;99.90;;;;;;5070162;28;20127;-87
2023/06/07 08:50:24;;;;;;;15.18;6.45;;;18.00;99.90;;;;;;5069734;28;20413;-87
2023/06/07 08:52:53;;;;;;;18.10;6.25;;;18.10;99.90;;;;;;5069974;28;20048;-87
2023/06/07 08:55:19;;;;;;;17.63;6.20;;;18.20;99.90;;;;;;5070330;28;20040;-87
2023/06/07 08:57:51;;;;;;;13.00;5.32;;;18.30;99.90;;;;;;5070028;28;20417;-87
2023/06/07 09:00:21;;;;;;;14.98;5.93;;;18.40;99.90;;;;;;5052986;28;20119;-87
2023/06/07 09:02:51;;;;;;;12.73;5.47;;;18.40;99.90;;;;;;5069877;28;20119;-87
2023/06/07 09:05:20;;;;;;;13.23;5.68;;;18.50;99.90;;;;;;5070028;28;20044;-87
2023/06/07 09:07:46;;;;;;;16.25;6.00;;;18.60;99.70;;;;;;5070242;28;20029;-85
2023/06/07 09:10:13;;;;;;;13.25;5.45;;;18.70;98.90;;;;;;5069600;28;20619;-85
2023/06/07 09:12:39;;;;;;;13.57;5.40;;;18.80;98.70;;;;;;5070018;28;20442;-85
2023/06/07 09:15:07;;;;;;;14.32;5.68;;;18.90;98.00;;;;;;5069978;28;20044;-85
2023/06/07 09:17:53;;;;;;;13.52;5.95;;;19.00;97.90;;;;;;5069879;28;20174;-85
2023/06/07 09:20:24;;;;;;;16.08;6.65;;;19.10;98.00;;;;;;5052715;28;20124;-85
2023/06/07 09:23:02;;;;;;;14.48;5.40;;;19.20;97.10;;;;;;5069804;28;20043;-85
2023/06/07 09:25:30;;;;;;;15.40;5.55;;;19.30;96.10;;;;;;5069740;28;20036;-85
2023/06/07 09:27:56;;;;;;;14.20;5.28;;;19.40;95.80;;;;;;5069832;28;20036;-85
2023/06/07 09:30:22;;;;;;;14.05;6.50;;;19.50;95.70;;;;;;5069661;28;20067;-85
2023/06/07 09:32:48;;;;;;;15.88;6.20;;;19.60;93.90;;;;;;5069860;28;20489;-84
2023/06/07 09:35:17;;;;;;;15.25;5.15;;;19.70;92.90;;;;;;5069531;28;20044;-85
2023/06/07 09:38:00;;;;;;;13.52;6.07;;;19.70;92.00;;;;;;5068221;28;20037;-85
2023/06/07 09:40:26;;;;;;;19.38;7.40;;;19.70;91.70;;;;;;5072437;28;20043;-85
2023/06/07 09:42:57;;;;;;;21.70;10.15;;;19.70;91.80;;;;;;5072626;28;20037;-84
2023/06/07 09:45:24;;;;;;;22.10;8.10;;;19.70;92.00;;;;;;5072573;28;20078;-85
2023/06/07 09:48:04;;;;;;;15.95;5.82;;;19.80;92.70;;;;;;5072349;28;20056;-85
2023/06/07 09:50:30;;;;;;;15.55;6.40;;;19.90;91.40;;;;;;5054645;28;20063;-85
2023/06/07 09:52:57;;;;;;;13.85;5.25;;;20.00;91.50;;;;;;5055496;28;20044;-85
2023/06/07 09:55:27;;;;;;;17.33;6.20;;;20.10;91.50;;;;;;5071715;28;20045;-85
2023/06/07 09:57:53;;;;;;;17.63;5.82;;;20.20;91.50;;;;;;5072185;28;20048;-85
2023/06/07 10:00:19;;;;;;;13.85;5.53;;;20.30;91.30;;;;;;5071771;28;20440;-85
2023/06/07 10:02:46;;;;;;;17.20;6.72;;;20.40;91.30;;;;;;5072165;28;20041;-85
2023/06/07 10:05:14;;;;;;;14.38;5.82;;;20.50;90.90;;;;;;5073505;28;20094;-85
2023/06/07 10:07:44;;;;;;;13.98;5.82;;;20.70;90.60;;;;;;5055918;28;20094;-85
2023/06/07 10:10:13;;;;;;;14.85;5.13;;;20.80;90.60;;;;;;5071966;28;20117;-85
2023/06/07 10:12:41;;;;;;;17.45;6.18;;;20.90;90.10;;;;;;5055517;28;20440;-85
2023/06/07 10:15:12;;;;;;;18.20;6.75;;;21.00;88.90;;;;;;5072180;28;20047;-85
2023/06/07 10:17:48;;;;;;;13.90;5.18;;;21.10;88.30;;;;;;5054248;28;20079;-85
2023/06/07 10:20:24;;;;;;;18.23;5.90;;;21.20;87.50;;;;;;5055510;28;20086;-85
2023/06/07 10:22:54;;;;;;;23.27;9.13;;;21.30;87.40;;;;;;5072199;28;20505;-85
2023/06/07 10:25:22;;;;;;;16.02;6.82;;;21.30;87.20;;;;;;5072002;28;20485;-85
2023/06/07 10:28:19;;;;;;;13.20;5.53;;;21.40;86.90;;;;;;5072343;28;20086;-85
2023/06/07 10:30:55;;;;;;;13.88;4.78;;;21.50;84.80;;;;;;5052243;28;20132;-85
2023/06/07 10:33:24;;;;;;;12.13;4.78;;;21.60;85.60;;;;;;5073087;28;20043;-86
2023/06/07 10:35:50;;;;;;;15.85;5.13;;;21.60;85.10;;;;;;5071519;28;20036;-85
2023/06/07 10:38:16;;;;;;;13.73;4.63;;;21.80;85.10;;;;;;5071932;28;20417;-87
2023/06/07 10:40:43;;;;;;;13.05;4.93;;;21.90;84.80;;;;;;5071483;28;20033;-88
2023/06/07 10:43:09;;;;;;;13.68;4.10;;;22.10;83.60;;;;;;5056539;28;20040;-88
2023/06/07 10:45:34;;;;;;;11.82;4.80;;;22.20;82.80;;;;;;5052079;28;20067;-88
2023/06/07 10:48:31;;;;;;;12.93;4.68;;;22.20;82.10;;;;;;5052475;28;20406;-88
2023/06/07 10:50:56;;;;;;;12.70;4.20;;;22.40;82.00;;;;;;5051678;28;20048;-88
2023/06/07 10:53:22;;;;;;;14.27;4.63;;;22.40;80.30;;;;;;5061535;28;20037;-88
2023/06/07 10:55:47;;;;;;;12.48;4.25;;;22.50;78.90;;;;;;5055003;28;20037;-88
2023/06/07 10:58:27;;;;;;;12.52;4.95;;;22.60;78.00;;;;;;5054680;28;20037;-88
2023/06/07 11:00:54;;;;;;;13.48;5.50;;;22.70;76.40;;;;;;5069876;28;20064;-88
2023/06/07 11:03:23;;;;;;;12.05;4.80;;;22.80;75.70;;;;;;5068991;28;20045;-88
2023/06/07 11:05:57;;;;;;;11.95;4.85;;;22.90;75.20;;;;;;5053757;28;20449;-88
2023/06/07 11:08:28;;;;;;;12.27;4.35;;;23.00;75.20;;;;;;5069123;28;20047;-88
2023/06/07 11:11:00;;;;;;;12.25;4.85;;;23.10;76.30;;;;;;5070757;28;20036;-88
2023/06/07 11:13:26;;;;;;;;;;;23.20;75.70;;;;;;5072384;28;20040;-89
2023/06/07 11:15:52;;;;;;;12.50;4.50;;;23.30;76.30;;;;;;5071031;28;19917;-88
2023/06/07 11:18:18;;;;;;;10.75;4.18;;;23.50;75.90;;;;;;5068363;28;20482;-88
2023/06/07 11:20:45;;;;;;;11.27;5.25;;;23.60;74.60;;;;;;5071040;28;20119;-88
2023/06/07 11:23:28;;;;;;;11.63;4.13;;;23.70;74.00;;;;;;5054211;28;20050;-87
2023/06/07 11:25:53;;;;;;;11.85;4.15;;;23.80;73.50;;;;;;5053675;28;20044;-88
2023/06/07 11:28:31;;;;;;;11.30;4.07;;;23.80;73.00;;;;;;5054369;28;20044;-88
2023/06/07 11:30:57;;;;;;;11.43;4.40;;;24.00;72.70;;;;;;5048766;28;20044;-89
2023/06/07 11:33:23;;;;;;;14.55;3.83;;;24.10;71.20;;;;;;5055008;28;20048;-88
2023/06/07 11:35:49;;;;;;;10.93;4.05;;;24.20;71.40;;;;;;5054665;28;20486;-89
2023/06/07 11:38:16;;;;;;;11.60;4.07;;;24.30;71.20;;;;;;5054776;28;20608;-89
2023/06/07 11:40:42;;;;;;;14.50;3.92;;;24.40;71.00;;;;;;5071706;28;20036;-88
2023/06/07 11:43:10;;;;;;;10.40;4.20;;;24.50;70.70;;;;;;5054918;28;20044;-88
2023/06/07 11:45:36;;;;;;;11.00;3.58;;;24.50;69.30;;;;;;5071403;28;20048;-88
2023/06/07 11:48:02;;;;;;;13.18;4.15;;;24.50;69.10;;;;;;5054682;28;20062;-88
2023/06/07 11:50:28;;;;;;;10.85;3.50;;;24.60;68.60;;;;;;5054190;28;20041;-88
2023/06/07 11:52:54;;;;;;;10.70;4.20;;;24.60;68.50;;;;;;5072473;28;20045;-88
2023/06/07 11:55:20;;;;;;;10.60;4.20;;;24.70;68.70;;;;;;5072202;28;20040;-88
2023/06/07 11:57:51;;;;;;;12.18;4.35;;;24.80;68.30;;;;;;5054256;28;20040;-88
2023/06/07 12:00:20;;;;;;;11.53;3.87;;;24.90;66.80;;;;;;5053877;28;20062;-88
2023/06/07 12:02:47;;;;;;;10.40;4.07;;;24.90;66.80;;;;;;5071001;28;20286;-88
2023/06/07 12:05:14;;;;;;;9.38;3.67;;;25.00;67.10;;;;;;5054629;28;20367;-88
2023/06/07 12:07:41;;;;;;;10.07;3.95;;;25.20;67.40;;;;;;5054828;28;20047;-88
2023/06/07 12:10:07;;;;;;;11.98;4.07;;;25.30;66.80;;;;;;5070702;28;20167;-88
2023/06/07 12:12:34;;;;;;;10.88;4.20;;;25.40;65.90;;;;;;5053969;28;20032;-88
2023/06/07 12:15:04;;;;;;;8.90;3.22;;;25.50;65.50;;;;;;5054096;28;20448;-88
2023/06/07 12:17:37;;;;;;;11.00;3.58;;;25.60;65.50;;;;;;5051521;28;20047;-88
2023/06/07 12:20:13;;;;;;;10.65;3.83;;;25.70;65.50;;;;;;5069982;28;20040;-88
2023/06/07 12:22:39;;;;;;;10.02;3.70;;;25.80;64.50;;;;;;5070069;28;20059;-88
2023/06/07 12:25:15;;;;;;;10.23;3.90;;;25.90;64.70;;;;;;5070490;28;20044;-89
2023/06/07 12:27:45;;;;;;;11.35;4.25;;;26.10;64.80;;;;;;5071134;28;20040;-87
2023/06/07 12:30:11;;;;;;;11.50;3.83;;;26.20;63.80;;;;;;5069732;28;20036;-88
2023/06/07 12:32:37;;;;;;;11.10;3.83;;;26.30;63.30;;;;;;5052885;28;20033;-88
2023/06/07 12:35:06;;;;;;;11.82;4.53;;;26.40;63.30;;;;;;5052930;28;20533;-88
2023/06/07 12:37:35;;;;;;;11.60;3.83;;;26.40;62.40;;;;;;5069547;28;20473;-88
2023/06/07 12:40:05;;;;;;;10.20;3.80;;;26.40;62.00;;;;;;5069651;28;20086;-89
2023/06/07 12:42:34;;;;;;;11.38;4.03;;;26.50;62.30;;;;;;5069797;28;20127;-88